Time;durP1;ratioP1;P1;durP2;ratioP2;P2;SDS_P1;SDS_P2;PMS_P1;PMS_P2;Temp;Humidity;BMP_temperature;BMP_pressure;BME280_temperature;BME280_humidity;BME280_pressure;Samples;Min_cycle;Max_cycle;Signal;HPM_P1;HPM_P2
2022/12/29 00:01:01;;;;;;;14.50;11.60;;;2.80;99.90;;;;;;6239823;28;20475;-62
2022/12/29 00:04:06;;;;;;;14.30;11.57;;;2.80;99.90;;;;;;6249368;28;20467;-62
2022/12/29 00:07:17;;;;;;;12.20;9.07;;;2.80;99.90;;;;;;6249246;28;20504;-62
2022/12/29 00:10:20;;;;;;;10.83;8.10;;;2.80;99.90;;;;;;6249426;28;20959;-62
2022/12/29 00:16:45;;;;;;;11.43;9.63;;;2.80;99.90;;;;;;6244897;28;20463;-63
2022/12/29 00:36:41;;;;;;;11.67;9.33;;;2.50;99.90;;;;;;6217007;28;20774;-62
2022/12/29 00:46:27;;;;;;;13.40;9.40;;;2.50;99.90;;;;;;6253237;28;20524;-62
2022/12/29 00:49:31;;;;;;;12.87;9.53;;;2.50;99.90;;;;;;6253286;28;20466;-62
2022/12/29 00:52:34;;;;;;;11.50;10.30;;;2.50;99.90;;;;;;6253365;28;20443;-63
2022/12/29 00:55:39;;;;;;;12.20;10.07;;;2.50;99.90;;;;;;6253172;28;20455;-64
2022/12/29 00:58:42;;;;;;;11.53;10.43;;;2.50;99.90;;;;;;6253538;28;20474;-64
2022/12/29 01:01:46;;;;;;;19.67;11.00;;;2.50;99.90;;;;;;6252862;28;20443;-61
2022/12/29 01:04:49;;;;;;;20.33;12.20;;;2.50;99.90;;;;;;6251862;28;20524;-62
2022/12/29 01:07:52;;;;;;;17.10;13.33;;;2.50;99.90;;;;;;6251773;28;20974;-61
2022/12/29 01:11:00;;;;;;;13.13;11.03;;;2.40;99.90;;;;;;6251755;28;20467;-61
2022/12/29 01:14:03;;;;;;;14.90;11.30;;;2.40;99.90;;;;;;6252328;28;20516;-62
2022/12/29 01:17:07;;;;;;;12.43;9.13;;;2.30;99.90;;;;;;6253247;28;20498;-62
2022/12/29 01:20:11;;;;;;;13.57;9.47;;;2.30;99.90;;;;;;6272824;28;20478;-61
2022/12/29 01:23:14;;;;;;;13.93;10.50;;;2.30;99.90;;;;;;6277459;28;20466;-63
2022/12/29 01:26:20;;;;;;;26.23;23.43;;;2.30;99.90;;;;;;6277214;28;20474;-62
2022/12/29 01:29:23;;;;;;;22.73;20.40;;;2.30;99.90;;;;;;6277523;28;20470;-62
2022/12/29 01:32:27;;;;;;;17.23;15.07;;;2.30;99.90;;;;;;6261034;28;20538;-62
2022/12/29 01:35:30;;;;;;;19.40;12.83;;;2.30;99.90;;;;;;6251228;28;20471;-62
2022/12/29 01:38:34;;;;;;;15.97;12.50;;;2.30;99.90;;;;;;6252340;28;20814;-62
2022/12/29 01:41:38;;;;;;;13.17;11.87;;;2.20;99.90;;;;;;6251975;28;20498;-62
2022/12/29 01:44:56;;;;;;;13.17;11.27;;;2.30;99.90;;;;;;6227833;28;20472;-62
2022/12/29 01:48:04;;;;;;;13.17;11.00;;;2.20;99.90;;;;;;6226828;28;20488;-61
2022/12/29 01:51:08;;;;;;;15.00;10.97;;;2.20;99.90;;;;;;6227743;28;20850;-61
2022/12/29 01:54:18;;;;;;;13.13;10.53;;;2.20;99.90;;;;;;6227642;28;20491;-61
2022/12/29 01:57:26;;;;;;;11.10;9.57;;;2.20;99.90;;;;;;6227731;28;20480;-62
2022/12/29 02:00:29;;;;;;;14.07;10.07;;;2.20;99.90;;;;;;6227232;28;20481;-62
2022/12/29 02:03:34;;;;;;;18.33;11.13;;;2.10;99.90;;;;;;6227316;28;20588;-62
2022/12/29 02:06:42;;;;;;;11.80;9.60;;;2.10;99.90;;;;;;6227149;28;20476;-62
2022/12/29 02:09:48;;;;;;;15.33;11.17;;;2.00;99.90;;;;;;6227165;28;20475;-61
2022/12/29 02:12:54;;;;;;;13.43;10.50;;;1.90;99.90;;;;;;6231967;28;20791;-61
2022/12/29 02:16:05;;;;;;;13.93;10.90;;;1.90;99.90;;;;;;6251328;28;20471;-61
2022/12/29 02:19:51;;;;;;;12.33;9.90;;;2.00;99.90;;;;;;6267200;28;20475;-62
2022/12/29 02:23:14;;;;;;;15.00;9.50;;;2.00;99.90;;;;;;6261494;28;20474;-62
2022/12/29 02:26:34;;;;;;;12.77;9.73;;;2.00;99.90;;;;;;6262700;28;20490;-62
2022/12/29 02:30:04;;;;;;;14.60;9.17;;;1.90;99.90;;;;;;6276042;28;20759;-62
2022/12/29 02:33:22;;;;;;;9.63;8.70;;;2.00;99.90;;;;;;6275931;28;20481;-62
2022/12/29 02:36:33;;;;;;;11.53;9.20;;;2.00;99.90;;;;;;6275977;28;20471;-62
2022/12/29 02:39:43;;;;;;;10.97;8.93;;;1.90;99.90;;;;;;6275692;28;20937;-62
2022/12/29 02:42:51;;;;;;;12.70;9.93;;;1.80;99.90;;;;;;6275727;28;20475;-62
2022/12/29 02:45:57;;;;;;;10.50;8.70;;;1.90;99.90;;;;;;6275479;28;20470;-62
2022/12/29 02:49:09;;;;;;;11.93;8.83;;;1.90;99.90;;;;;;6275602;28;20480;-62
2022/12/29 02:52:17;;;;;;;10.13;8.53;;;1.90;99.90;;;;;;6275545;28;21000;-62
2022/12/29 02:55:20;;;;;;;11.23;9.37;;;1.80;99.90;;;;;;6276084;28;20471;-62
2022/12/29 02:58:24;;;;;;;9.93;8.50;;;1.80;99.90;;;;;;6275179;28;20467;-62
2022/12/29 03:02:16;;;;;;;12.33;10.00;;;1.80;99.90;;;;;;6261006;28;20469;-62
2022/12/29 03:05:36;;;;;;;15.13;10.90;;;1.80;99.90;;;;;;6250796;28;20482;-62
2022/12/29 03:08:47;;;;;;;14.40;11.50;;;1.80;99.90;;;;;;6251043;28;20494;-62
2022/12/29 03:12:08;;;;;;;17.80;12.53;;;1.70;99.90;;;;;;6250208;28;20486;-62
2022/12/29 03:18:50;;;;;;;14.67;12.40;;;1.70;99.90;;;;;;6267787;28;20475;-62
2022/12/29 03:25:24;;;;;;;13.13;9.10;;;1.80;99.90;;;;;;6274646;28;20934;-62
2022/12/29 03:28:34;;;;;;;15.93;10.10;;;1.80;99.90;;;;;;6274571;28;20937;-62
2022/12/29 03:31:39;;;;;;;14.10;10.93;;;1.90;99.90;;;;;;6274613;28;20494;-62
2022/12/29 03:34:43;;;;;;;12.47;10.60;;;1.80;99.90;;;;;;6274900;28;20449;-62
2022/12/29 03:37:53;;;;;;;16.23;11.87;;;1.70;99.90;;;;;;6274461;28;20462;-62
2022/12/29 03:41:00;;;;;;;17.30;12.60;;;1.50;99.90;;;;;;6274723;28;20481;-62
2022/12/29 03:44:03;;;;;;;12.77;11.30;;;1.40;99.90;;;;;;6274499;28;20473;-62
2022/12/29 03:47:07;;;;;;;12.10;10.80;;;1.40;99.90;;;;;;6274100;28;20982;-62
2022/12/29 03:50:13;;;;;;;13.07;10.00;;;1.30;99.90;;;;;;6274569;28;20958;-62
2022/12/29 03:53:18;;;;;;;12.00;10.70;;;1.20;99.90;;;;;;6274441;28;20497;-62
2022/12/29 03:56:21;;;;;;;13.90;9.70;;;1.30;99.90;;;;;;6275578;28;20486;-62
2022/12/29 03:59:24;;;;;;;13.20;11.20;;;1.30;99.90;;;;;;6274665;28;20470;-62
2022/12/29 04:02:28;;;;;;;16.70;12.13;;;1.40;99.90;;;;;;6274160;28;20485;-62
2022/12/29 04:05:31;;;;;;;12.57;10.20;;;1.40;99.90;;;;;;6274079;28;20534;-62
2022/12/29 04:08:36;;;;;;;16.10;11.70;;;1.40;99.90;;;;;;6273807;28;20474;-63
2022/12/29 04:11:39;;;;;;;13.47;9.90;;;1.40;99.90;;;;;;6275867;28;20474;-62
2022/12/29 04:14:42;;;;;;;13.80;12.10;;;1.50;99.90;;;;;;6259434;28;20471;-62
2022/12/29 04:17:45;;;;;;;14.23;10.27;;;1.40;99.90;;;;;;6258994;28;20791;-62
2022/12/29 04:21:02;;;;;;;12.50;10.23;;;1.50;99.90;;;;;;6278987;28;20787;-62
2022/12/29 04:24:07;;;;;;;17.80;11.57;;;1.60;99.90;;;;;;6278846;28;20479;-62
2022/12/29 04:27:11;;;;;;;12.70;11.07;;;1.60;99.90;;;;;;6278921;28;20878;-62
2022/12/29 04:30:14;;;;;;;12.30;9.23;;;1.60;99.90;;;;;;6278709;28;20474;-63
2022/12/29 04:33:17;;;;;;;10.43;9.03;;;1.60;99.90;;;;;;6269702;28;20474;-62
2022/12/29 04:36:21;;;;;;;10.97;9.17;;;1.60;99.90;;;;;;6277676;28;20949;-62
2022/12/29 04:39:34;;;;;;;10.03;9.03;;;1.60;99.90;;;;;;6277500;28;20482;-62
2022/12/29 04:42:37;;;;;;;11.53;8.40;;;1.60;99.90;;;;;;6277423;28;20474;-62
2022/12/29 04:45:44;;;;;;;10.00;8.43;;;1.50;99.90;;;;;;6277091;28;20474;-61
2022/12/29 04:48:47;;;;;;;13.23;9.20;;;1.50;99.90;;;;;;6276995;28;20485;-62
2022/12/29 04:51:50;;;;;;;11.80;9.10;;;1.60;99.90;;;;;;6278029;28;20470;-62
2022/12/29 04:54:55;;;;;;;11.10;8.70;;;1.60;99.90;;;;;;6277867;28;20493;-62
2022/12/29 04:57:58;;;;;;;21.23;14.00;;;1.50;99.90;;;;;;6277532;28;20496;-62
2022/12/29 05:01:01;;;;;;;13.40;10.70;;;1.50;99.90;;;;;;6277926;28;20797;-62
2022/12/29 05:04:05;;;;;;;13.53;11.03;;;1.40;99.90;;;;;;6277566;28;20980;-62
2022/12/29 05:07:09;;;;;;;11.20;9.90;;;1.40;99.90;;;;;;6277429;28;20478;-62
2022/12/29 05:10:13;;;;;;;12.30;10.90;;;1.30;99.90;;;;;;6277458;28;20473;-62
2022/12/29 05:13:16;;;;;;;11.10;9.40;;;1.30;99.90;;;;;;6269305;28;20781;-62
2022/12/29 05:16:20;;;;;;;11.80;10.53;;;1.30;99.90;;;;;;6228149;28;20482;-62
2022/12/29 05:19:24;;;;;;;11.33;9.90;;;1.20;99.90;;;;;;6264668;28;20471;-62
2022/12/29 05:22:27;;;;;;;17.97;12.07;;;1.10;99.90;;;;;;6276664;28;20478;-62
2022/12/29 05:25:31;;;;;;;14.03;10.90;;;1.20;99.90;;;;;;6276582;28;20852;-62
2022/12/29 05:28:35;;;;;;;11.50;10.17;;;1.30;99.90;;;;;;6277262;28;20496;-63
2022/12/29 05:31:38;;;;;;;10.93;9.80;;;1.40;99.90;;;;;;6276902;28;20449;-62
2022/12/29 05:34:42;;;;;;;18.40;10.20;;;1.30;99.90;;;;;;6273122;28;20446;-62
2022/12/29 05:37:45;;;;;;;8.90;8.00;;;1.30;99.90;;;;;;6276645;28;20549;-62
2022/12/29 05:40:49;;;;;;;11.57;8.53;;;1.40;99.90;;;;;;6276797;28;23203;-62
2022/12/29 05:43:53;;;;;;;13.17;8.37;;;1.40;99.90;;;;;;6279127;28;20947;-62
2022/12/29 05:46:56;;;;;;;10.23;9.13;;;1.40;99.90;;;;;;6276787;28;20466;-62
2022/12/29 05:49:59;;;;;;;13.20;7.13;;;1.40;99.90;;;;;;6276415;28;20481;-63
2022/12/29 05:53:02;;;;;;;8.53;7.20;;;1.40;99.90;;;;;;6276715;28;20930;-62
2022/12/29 05:56:07;;;;;;;12.17;8.10;;;1.50;99.90;;;;;;6277044;28;20470;-63
2022/12/29 05:59:11;;;;;;;13.70;6.83;;;1.40;99.90;;;;;;6277619;28;20491;-63
2022/12/29 06:02:14;;;;;;;8.73;7.83;;;1.50;99.90;;;;;;6276731;28;20470;-62
2022/12/29 06:05:17;;;;;;;10.03;7.97;;;1.40;99.90;;;;;;6268401;28;20474;-62
2022/12/29 06:08:21;;;;;;;10.60;8.30;;;1.40;99.90;;;;;;6251581;28;20482;-63
2022/12/29 06:11:25;;;;;;;10.27;8.50;;;1.40;99.90;;;;;;6251287;28;20471;-62
2022/12/29 06:14:28;;;;;;;10.90;9.77;;;1.40;99.90;;;;;;6251575;28;20482;-63
2022/12/29 06:17:32;;;;;;;9.83;8.67;;;1.40;99.90;;;;;;6253381;28;20546;-63
2022/12/29 06:20:35;;;;;;;13.00;9.33;;;1.40;99.90;;;;;;6275533;28;20474;-62
2022/12/29 06:23:39;;;;;;;19.67;11.17;;;1.40;99.90;;;;;;6275980;28;20937;-62
2022/12/29 06:26:43;;;;;;;11.00;9.60;;;1.40;99.90;;;;;;6275791;28;20474;-63
2022/12/29 06:29:46;;;;;;;10.90;8.67;;;1.30;99.90;;;;;;6268153;28;20471;-63
2022/12/29 06:32:50;;;;;;;12.27;10.00;;;1.30;99.90;;;;;;6249999;28;20517;-63
2022/12/29 06:35:53;;;;;;;14.00;9.83;;;1.30;99.90;;;;;;6249426;28;20479;-63
2022/12/29 06:38:56;;;;;;;12.33;10.00;;;1.30;99.90;;;;;;6247681;28;20482;-64
2022/12/29 06:42:01;;;;;;;11.40;9.20;;;1.30;99.90;;;;;;6240765;28;20832;-64
2022/12/29 06:45:05;;;;;;;13.63;11.53;;;1.30;99.90;;;;;;6250180;28;20490;-64
2022/12/29 06:48:09;;;;;;;12.90;10.83;;;1.30;99.90;;;;;;6247674;28;20479;-64
2022/12/29 06:51:12;;;;;;;11.80;10.70;;;1.30;99.90;;;;;;6250046;28;20527;-63
2022/12/29 06:54:15;;;;;;;18.00;13.40;;;1.40;99.90;;;;;;6250459;28;20475;-63
2022/12/29 06:57:21;;;;;;;15.67;12.33;;;1.40;99.90;;;;;;6250737;28;20482;-62
2022/12/29 07:00:24;;;;;;;14.97;10.93;;;1.40;99.90;;;;;;6250794;28;21038;-63
2022/12/29 07:03:27;;;;;;;13.33;11.93;;;1.30;99.90;;;;;;6250719;28;20471;-63
2022/12/29 07:06:30;;;;;;;11.80;10.60;;;1.30;99.90;;;;;;6249558;28;20498;-63
2022/12/29 07:09:33;;;;;;;12.97;11.30;;;1.20;99.90;;;;;;6249640;28;20958;-62
2022/12/29 07:12:38;;;;;;;13.20;11.50;;;1.20;99.90;;;;;;6250052;28;20968;-62
2022/12/29 07:15:41;;;;;;;12.43;10.53;;;1.20;99.90;;;;;;6250831;28;20466;-62
2022/12/29 07:18:45;;;;;;;17.20;11.27;;;1.30;99.90;;;;;;6251478;28;20463;-62
2022/12/29 07:21:48;;;;;;;15.20;12.03;;;1.20;99.90;;;;;;6252717;28;20483;-63
2022/12/29 07:24:51;;;;;;;11.90;10.50;;;1.20;99.90;;;;;;6229880;28;20480;-63
2022/12/29 07:27:55;;;;;;;17.50;13.00;;;1.20;99.90;;;;;;6246623;28;20475;-63
2022/12/29 07:30:59;;;;;;;12.13;10.97;;;1.20;99.90;;;;;;6249575;28;20471;-63
2022/12/29 07:34:02;;;;;;;11.57;10.47;;;1.30;99.90;;;;;;6249746;28;20537;-62
2022/12/29 07:37:05;;;;;;;17.63;12.27;;;1.30;99.90;;;;;;6250991;28;20471;-63
2022/12/29 07:40:10;;;;;;;13.43;12.03;;;1.40;99.90;;;;;;6252512;28;20578;-62
2022/12/29 07:43:15;;;;;;;15.80;13.00;;;1.40;99.90;;;;;;6262599;28;20479;-63
2022/12/29 07:46:18;;;;;;;15.03;11.70;;;1.40;99.90;;;;;;6251550;28;20483;-63
2022/12/29 07:49:41;;;;;;;15.77;12.80;;;1.40;99.90;;;;;;6248652;28;20562;-63
2022/12/29 07:52:46;;;;;;;15.77;13.10;;;1.30;99.90;;;;;;6247084;28;20462;-62
2022/12/29 07:55:49;;;;;;;18.27;12.20;;;1.40;99.90;;;;;;6249733;28;20427;-62
2022/12/29 07:58:54;;;;;;;13.07;11.63;;;1.50;99.90;;;;;;6249826;28;20493;-62
2022/12/29 08:01:57;;;;;;;16.57;12.27;;;1.50;99.90;;;;;;6249531;28;20467;-63
2022/12/29 08:05:00;;;;;;;18.33;13.80;;;1.60;99.90;;;;;;6250163;28;20459;-63
2022/12/29 08:08:04;;;;;;;13.63;12.20;;;1.70;99.90;;;;;;6249570;28;20479;-63
2022/12/29 08:11:07;;;;;;;15.53;11.70;;;1.80;99.90;;;;;;6249560;28;20881;-63
2022/12/29 08:14:12;;;;;;;19.50;12.93;;;1.80;99.90;;;;;;6249287;28;20486;-63
2022/12/29 08:17:15;;;;;;;15.17;12.93;;;1.90;99.90;;;;;;6249633;28;20775;-63
2022/12/29 08:20:18;;;;;;;21.20;13.50;;;1.90;99.90;;;;;;6274126;28;20581;-62
2022/12/29 08:23:22;;;;;;;16.90;13.60;;;2.00;99.90;;;;;;6274314;28;20489;-63
2022/12/29 08:26:25;;;;;;;14.33;12.83;;;2.10;99.90;;;;;;6273821;28;20769;-63
2022/12/29 08:29:30;;;;;;;19.97;14.43;;;2.30;99.90;;;;;;6269756;28;20475;-63
2022/12/29 08:32:33;;;;;;;17.33;12.57;;;2.40;99.90;;;;;;6249389;28;20479;-62
2022/12/29 08:35:36;;;;;;;14.73;11.80;;;2.40;99.90;;;;;;6249359;28;20479;-63
2022/12/29 08:38:39;;;;;;;16.13;13.33;;;2.40;99.90;;;;;;6249280;28;20479;-63
2022/12/29 08:41:42;;;;;;;15.80;11.90;;;2.40;99.90;;;;;;6249336;28;20470;-63
2022/12/29 08:44:47;;;;;;;13.33;11.90;;;2.40;99.90;;;;;;6249595;28;20482;-64
2022/12/29 08:47:50;;;;;;;16.80;13.60;;;2.40;99.90;;;;;;6249596;28;20471;-63
2022/12/29 08:50:53;;;;;;;16.87;13.40;;;2.60;99.90;;;;;;6249261;28;20478;-64
2022/12/29 08:53:56;;;;;;;17.27;15.07;;;2.70;99.90;;;;;;6249254;28;20498;-63
2022/12/29 08:57:00;;;;;;;18.63;16.63;;;2.70;99.90;;;;;;6249157;28;20482;-63
2022/12/29 09:00:06;;;;;;;17.87;15.80;;;2.70;99.90;;;;;;6252084;28;20554;-63
2022/12/29 09:03:09;;;;;;;19.10;13.23;;;2.80;99.90;;;;;;6253788;28;20478;-63
2022/12/29 09:06:13;;;;;;;17.50;13.87;;;2.80;99.90;;;;;;6253296;28;20601;-63
2022/12/29 09:09:16;;;;;;;16.30;13.53;;;2.90;99.90;;;;;;6252986;28;20988;-62
2022/12/29 09:12:20;;;;;;;14.13;12.67;;;3.00;99.90;;;;;;6253099;28;20475;-63
2022/12/29 09:15:24;;;;;;;15.30;12.70;;;3.10;99.90;;;;;;6253450;28;20470;-64
2022/12/29 09:18:27;;;;;;;14.20;12.70;;;3.20;99.90;;;;;;6263295;28;20479;-63
2022/12/29 09:21:31;;;;;;;17.83;13.10;;;3.40;99.90;;;;;;6277351;28;20792;-63
2022/12/29 09:24:34;;;;;;;18.40;13.13;;;3.50;99.90;;;;;;6277473;28;20973;-63
2022/12/29 09:27:38;;;;;;;15.13;13.60;;;3.60;99.90;;;;;;6277380;28;20500;-63
2022/12/29 09:30:42;;;;;;;16.20;13.37;;;3.80;99.90;;;;;;6264610;28;20797;-63
2022/12/29 09:33:46;;;;;;;23.30;13.87;;;3.90;99.90;;;;;;6254082;28;20569;-63
2022/12/29 09:36:50;;;;;;;15.87;13.10;;;4.10;99.90;;;;;;6255106;28;20470;-62
2022/12/29 09:39:53;;;;;;;22.00;15.03;;;4.20;99.90;;;;;;6253328;28;20482;-63
2022/12/29 09:43:24;;;;;;;21.50;16.10;;;4.40;99.90;;;;;;6252432;28;21006;-63
2022/12/29 09:46:30;;;;;;;22.23;16.67;;;4.50;99.90;;;;;;6238410;28;20488;-65
2022/12/29 09:49:42;;;;;;;22.53;16.40;;;4.70;99.90;;;;;;6254979;28;20594;-65
2022/12/29 09:52:51;;;;;;;19.10;14.63;;;4.80;99.90;;;;;;6248441;28;20445;-64
2022/12/29 09:55:57;;;;;;;21.20;15.27;;;4.90;99.90;;;;;;6255772;28;20564;-63
2022/12/29 09:59:08;;;;;;;19.23;15.40;;;5.10;99.90;;;;;;6260938;28;20463;-64
2022/12/29 10:02:32;;;;;;;18.93;16.00;;;5.20;99.90;;;;;;6261072;28;20497;-63
2022/12/29 10:05:42;;;;;;;19.63;12.73;;;5.30;99.90;;;;;;6257744;28;20562;-63
2022/12/29 10:08:53;;;;;;;12.37;10.60;;;5.50;99.90;;;;;;6251749;28;20487;-63
2022/12/29 10:12:07;;;;;;;25.23;15.10;;;5.60;99.90;;;;;;6251515;28;20826;-63
2022/12/29 10:15:20;;;;;;;16.07;13.17;;;5.80;99.90;;;;;;6251600;28;20479;-63
2022/12/29 10:18:41;;;;;;;12.13;10.73;;;6.00;99.90;;;;;;6260666;28;20481;-63
2022/12/29 10:21:59;;;;;;;20.67;15.07;;;6.20;99.90;;;;;;6252096;28;20487;-64
2022/12/29 10:25:12;;;;;;;20.53;13.37;;;6.40;99.90;;;;;;6247228;28;20476;-64
2022/12/29 10:28:20;;;;;;;20.03;15.00;;;6.60;99.90;;;;;;6251126;28;20483;-63
2022/12/29 10:31:25;;;;;;;19.20;14.53;;;6.70;99.90;;;;;;6248595;28;20475;-63
2022/12/29 10:34:35;;;;;;;16.40;14.27;;;6.80;99.90;;;;;;6250642;28;20467;-63
2022/12/29 10:37:44;;;;;;;20.50;15.33;;;6.90;99.90;;;;;;6251520;28;20589;-64
2022/12/29 10:40:52;;;;;;;22.03;16.30;;;7.00;99.90;;;;;;6250768;28;20427;-64
2022/12/29 10:43:58;;;;;;;22.17;18.90;;;7.10;99.90;;;;;;6251043;28;20468;-64
2022/12/29 10:47:06;;;;;;;18.43;16.10;;;7.20;99.90;;;;;;6245502;28;20469;-64
2022/12/29 10:50:14;;;;;;;17.30;15.07;;;7.40;99.90;;;;;;6250687;28;20947;-64
2022/12/29 10:53:22;;;;;;;18.23;15.40;;;7.40;99.90;;;;;;6249808;28;20503;-64
2022/12/29 10:56:33;;;;;;;20.23;15.80;;;7.50;99.90;;;;;;6245819;28;20471;-62
2022/12/29 10:59:38;;;;;;;26.40;16.43;;;7.50;99.90;;;;;;6250051;28;20480;-63
2022/12/29 11:03:15;;;;;;;18.27;15.93;;;7.50;99.90;;;;;;6245104;28;20784;-62
2022/12/29 11:06:25;;;;;;;17.00;15.20;;;7.60;99.90;;;;;;6230179;28;20463;-62
2022/12/29 11:09:31;;;;;;;18.50;15.43;;;7.60;99.90;;;;;;6249954;28;20959;-63
2022/12/29 11:13:12;;;;;;;20.27;14.97;;;7.70;99.90;;;;;;6250267;28;20467;-63
2022/12/29 11:16:15;;;;;;;16.00;14.20;;;7.80;99.90;;;;;;6250326;28;20463;-62
2022/12/29 11:19:22;;;;;;;20.30;15.07;;;8.00;99.90;;;;;;6251482;28;20501;-60
2022/12/29 11:22:29;;;;;;;19.13;15.43;;;9.90;99.90;;;;;;6248220;28;20475;-66
2022/12/29 11:25:33;;;;;;;19.67;17.60;;;13.90;96.00;;;;;;6246887;28;20462;-66
2022/12/29 11:28:39;;;;;;;16.20;14.10;;;15.60;84.40;;;;;;6249151;28;20459;-64
2022/12/29 11:31:44;;;;;;;17.90;14.47;;;15.00;78.20;;;;;;6249701;28;20930;-67
2022/12/29 11:34:48;;;;;;;17.43;14.07;;;14.10;78.30;;;;;;6249181;28;20514;-67
2022/12/29 11:37:58;;;;;;;16.67;13.87;;;14.80;80.80;;;;;;6246989;28;20541;-67
2022/12/29 11:41:02;;;;;;;16.50;12.50;;;18.60;69.90;;;;;;6249221;28;20463;-63
2022/12/29 11:44:07;;;;;;;15.13;13.63;;;22.00;54.70;;;;;;6249553;28;20477;-61
2022/12/29 11:47:15;;;;;;;18.00;13.50;;;25.00;44.30;;;;;;6249653;28;20239;-62
2022/12/29 11:50:20;;;;;;;15.73;14.03;;;27.50;36.10;;;;;;6250022;28;20247;-62
2022/12/29 11:53:27;;;;;;;22.57;20.37;;;29.00;31.20;;;;;;6249503;28;20220;-64
2022/12/29 11:56:40;;;;;;;21.03;18.40;;;30.10;28.80;;;;;;6249685;28;20239;-63
2022/12/29 11:59:49;;;;;;;16.20;14.47;;;30.20;27.20;;;;;;6249012;28;20219;-63
2022/12/29 12:02:58;;;;;;;16.83;14.73;;;30.70;25.70;;;;;;6251023;28;20223;-62
2022/12/29 12:06:03;;;;;;;15.50;13.90;;;28.70;25.60;;;;;;6254896;28;20223;-62
2022/12/29 12:09:15;;;;;;;15.30;13.03;;;26.00;28.10;;;;;;6253081;28;20684;-63
2022/12/29 12:12:24;;;;;;;14.90;12.47;;;24.90;30.00;;;;;;6249833;28;20232;-62
2022/12/29 12:15:36;;;;;;;14.43;12.53;;;26.80;28.70;;;;;;6249326;28;20234;-61
2022/12/29 12:18:50;;;;;;;12.63;11.40;;;28.70;26.70;;;;;;6261782;28;20256;-62
2022/12/29 12:22:00;;;;;;;12.23;11.13;;;29.40;25.60;;;;;;6269340;28;20250;-62
2022/12/29 12:25:12;;;;;;;11.37;10.30;;;28.40;25.30;;;;;;6249185;28;20695;-62
2022/12/29 12:28:22;;;;;;;13.93;11.70;;;26.10;26.70;;;;;;6249531;28;20570;-62
2022/12/29 12:31:39;;;;;;;11.70;10.57;;;24.20;29.60;;;;;;6244353;28;20239;-62
2022/12/29 12:34:44;;;;;;;10.03;9.07;;;26.00;29.10;;;;;;6253822;28;20204;-61
2022/12/29 12:38:04;;;;;;;9.90;8.93;;;28.70;26.60;;;;;;6253604;28;20246;-63
2022/12/29 12:41:12;;;;;;;12.27;10.97;;;31.00;24.80;;;;;;6250807;28;20515;-62
2022/12/29 12:44:30;;;;;;;9.93;8.13;;;33.10;23.00;;;;;;6253477;28;20242;-62
2022/12/29 12:47:51;;;;;;;9.25;7.70;;;34.30;20.90;;;;;;6253719;28;20236;-62
2022/12/29 12:51:02;;;;;;;8.40;7.70;;;34.90;19.90;;;;;;6253402;28;20231;-62
2022/12/29 12:54:24;;;;;;;8.73;6.78;;;35.50;19.30;;;;;;6253545;28;20235;-63
2022/12/29 12:57:45;;;;;;;7.25;6.28;;;36.10;18.60;;;;;;6253548;28;20242;-63
2022/12/29 13:01:05;;;;;;;5.82;5.32;;;36.30;17.80;;;;;;6252736;28;20664;-64
2022/12/29 13:04:38;;;;;;;6.38;5.78;;;35.50;17.70;;;;;;6250489;28;20223;-63
2022/12/29 13:07:50;;;;;;;8.88;7.00;;;35.50;17.30;;;;;;6252931;28;20231;-65
2022/12/29 13:11:00;;;;;;;7.37;5.30;;;33.20;18.60;;;;;;6252918;28;20664;-63
2022/12/29 13:14:20;;;;;;;5.37;4.87;;;29.90;20.80;;;;;;6253737;28;20238;-63
2022/12/29 13:17:31;;;;;;;6.07;5.47;;;27.20;23.40;;;;;;6253987;28;20255;-62
2022/12/29 13:20:40;;;;;;;5.90;5.40;;;27.80;23.80;;;;;;6277626;28;20234;-62
2022/12/29 13:23:51;;;;;;;5.67;5.17;;;29.30;22.60;;;;;;6258030;28;20232;-63
2022/12/29 13:27:01;;;;;;;8.80;5.10;;;30.10;21.70;;;;;;6252351;28;20226;-63
2022/12/29 13:30:10;;;;;;;6.00;5.37;;;30.30;21.40;;;;;;6250767;28;20544;-62
2022/12/29 13:33:22;;;;;;;7.77;5.60;;;29.10;21.90;;;;;;6252369;28;20679;-63
2022/12/29 13:36:30;;;;;;;8.13;6.40;;;27.10;23.80;;;;;;6252000;28;20268;-63
2022/12/29 13:39:38;;;;;;;7.20;5.80;;;27.60;24.20;;;;;;6251701;28;20239;-62
2022/12/29 13:42:43;;;;;;;7.90;5.93;;;28.90;23.50;;;;;;6250531;28;20250;-62
2022/12/29 13:45:56;;;;;;;8.10;5.60;;;30.10;22.70;;;;;;6250905;28;20239;-62
2022/12/29 13:49:03;;;;;;;6.10;5.50;;;31.00;21.50;;;;;;6250883;28;20231;-63
2022/12/29 13:52:13;;;;;;;6.63;5.63;;;31.10;21.50;;;;;;6250371;28;20849;-63
2022/12/29 13:55:27;;;;;;;7.53;6.63;;;31.50;21.20;;;;;;6251286;28;20588;-63
2022/12/29 13:58:35;;;;;;;7.57;6.40;;;31.80;20.80;;;;;;6251975;28;20246;-64
2022/12/29 14:01:46;;;;;;;7.30;6.07;;;31.90;20.70;;;;;;6253101;28;20212;-62
2022/12/29 14:04:59;;;;;;;6.20;5.70;;;31.70;20.70;;;;;;6253967;28;20188;-63
2022/12/29 14:08:04;;;;;;;6.37;5.30;;;31.50;20.80;;;;;;6243297;28;20247;-63
2022/12/29 14:11:11;;;;;;;9.40;7.30;;;31.30;21.10;;;;;;6251854;28;20242;-63
2022/12/29 14:14:20;;;;;;;7.50;6.30;;;31.00;21.10;;;;;;6251818;28;20242;-63
2022/12/29 14:17:25;;;;;;;7.43;6.27;;;30.50;21.50;;;;;;6253808;28;20238;-62
2022/12/29 14:20:28;;;;;;;10.73;6.13;;;29.90;21.90;;;;;;6278826;28;20250;-62
2022/12/29 14:23:40;;;;;;;6.93;6.07;;;29.00;22.90;;;;;;6269369;28;20239;-63
2022/12/29 14:26:43;;;;;;;7.07;6.37;;;27.60;23.60;;;;;;6252928;28;20231;-63
2022/12/29 14:29:48;;;;;;;9.17;7.27;;;26.10;25.00;;;;;;6246779;28;20532;-62
2022/12/29 14:33:13;;;;;;;9.73;6.43;;;24.50;26.50;;;;;;6250622;28;20680;-62
2022/12/29 14:36:21;;;;;;;7.33;6.30;;;22.80;27.80;;;;;;6251254;28;20244;-62
2022/12/29 14:39:35;;;;;;;9.97;5.50;;;21.30;29.30;;;;;;6250450;28;20243;-62
2022/12/29 14:42:41;;;;;;;7.33;6.00;;;19.80;31.30;;;;;;6251101;28;20228;-62
2022/12/29 14:45:54;;;;;;;9.37;7.20;;;18.50;33.50;;;;;;6250915;28;20242;-62
2022/12/29 14:49:00;;;;;;;9.20;7.20;;;17.30;35.50;;;;;;6250328;28;20796;-62
2022/12/29 14:52:14;;;;;;;10.40;6.70;;;16.40;37.50;;;;;;6250408;28;20489;-62
2022/12/29 14:55:37;;;;;;;10.00;7.90;;;15.60;39.10;;;;;;6250065;28;20474;-62
2022/12/29 14:58:48;;;;;;;9.10;7.30;;;14.80;40.80;;;;;;6250514;28;20466;-62
2022/12/29 15:01:56;;;;;;;9.43;6.97;;;14.20;42.20;;;;;;6250534;28;20751;-63
2022/12/29 15:05:03;;;;;;;11.67;7.70;;;13.70;43.80;;;;;;6250499;28;20481;-63
2022/12/29 15:08:08;;;;;;;10.70;7.60;;;13.20;45.40;;;;;;6250312;28;20580;-63
2022/12/29 15:11:14;;;;;;;10.83;7.30;;;12.70;46.40;;;;;;6250644;28;20485;-62
2022/12/29 15:14:34;;;;;;;10.57;7.33;;;12.40;47.70;;;;;;6250217;28;20458;-62
2022/12/29 15:17:38;;;;;;;14.20;9.60;;;12.00;49.20;;;;;;6253283;28;20462;-63
2022/12/29 15:20:43;;;;;;;14.50;8.87;;;11.80;49.80;;;;;;6274674;28;20478;-62
2022/12/29 15:23:47;;;;;;;14.87;8.63;;;11.50;51.10;;;;;;6254478;28;20474;-62
2022/12/29 15:26:53;;;;;;;9.90;7.97;;;11.20;51.80;;;;;;6250118;28;20498;-62
2022/12/29 15:30:01;;;;;;;10.70;7.83;;;11.00;52.90;;;;;;6245599;28;20474;-62
2022/12/29 15:33:19;;;;;;;10.50;5.83;;;10.70;54.00;;;;;;6249915;28;20474;-62
2022/12/29 15:36:27;;;;;;;10.43;7.03;;;10.50;54.40;;;;;;6250011;28;20490;-62
2022/12/29 15:39:31;;;;;;;13.60;6.03;;;10.40;54.80;;;;;;6249638;28;20470;-62
2022/12/29 15:43:03;;;;;;;9.90;6.00;;;10.20;55.00;;;;;;6250064;28;20471;-62
2022/12/29 15:46:06;;;;;;;11.43;5.90;;;10.10;55.50;;;;;;6249655;28;20478;-62
2022/12/29 15:49:14;;;;;;;8.83;5.90;;;10.00;56.50;;;;;;6249692;28;20536;-61
2022/12/29 15:52:21;;;;;;;9.17;6.80;;;9.90;58.10;;;;;;6249346;28;20491;-61
2022/12/29 15:55:30;;;;;;;10.40;6.33;;;9.70;59.30;;;;;;6249745;28;20471;-64
2022/12/29 15:58:44;;;;;;;9.13;7.77;;;9.60;60.40;;;;;;6249137;28;20497;-62
2022/12/29 16:01:47;;;;;;;16.80;11.73;;;9.50;62.20;;;;;;6250404;28;20906;-63
2022/12/29 16:04:51;;;;;;;14.00;12.37;;;9.40;63.60;;;;;;6249911;28;20750;-63
2022/12/29 16:08:32;;;;;;;21.97;13.20;;;9.20;65.30;;;;;;6251381;28;20558;-62
2022/12/29 16:11:38;;;;;;;13.10;10.60;;;9.00;67.50;;;;;;6254307;28;20478;-63
2022/12/29 16:14:44;;;;;;;12.10;10.13;;;8.90;69.20;;;;;;6254292;28;20485;-62
2022/12/29 16:17:50;;;;;;;12.03;9.67;;;8.70;71.10;;;;;;6251147;28;20474;-62
2022/12/29 16:20:54;;;;;;;14.07;9.30;;;8.60;73.10;;;;;;6258899;28;20780;-62
2022/12/29 16:24:02;;;;;;;14.93;10.27;;;8.50;75.00;;;;;;6254244;28;20486;-61
2022/12/29 16:27:10;;;;;;;14.83;9.53;;;8.30;77.50;;;;;;6251809;28;20467;-63
2022/12/29 16:30:21;;;;;;;12.43;11.13;;;8.20;79.90;;;;;;6253200;28;20472;-62
2022/12/29 16:33:38;;;;;;;15.27;11.57;;;8.10;80.20;;;;;;6250460;28;20486;-62
2022/12/29 16:36:54;;;;;;;15.47;10.83;;;8.00;81.80;;;;;;6254541;28;20482;-61
2022/12/29 16:40:36;;;;;;;20.70;12.00;;;7.90;83.10;;;;;;6253458;28;20471;-62
2022/12/29 16:43:42;;;;;;;13.60;11.10;;;7.80;84.30;;;;;;6248961;28;20470;-64